sensor_id;sensor_type;location;lat;lon;timestamp;temperature;humidity
7117;DHT22;3600;48.568;7.870;2023-04-27T00:01:57;9.60;99.90
7117;DHT22;3600;48.568;7.870;2023-04-27T00:04:50;9.40;99.90
7117;DHT22;3600;48.568;7.870;2023-04-27T00:10:13;8.90;99.90
7117;DHT22;3600;48.568;7.870;2023-04-27T00:12:42;9.40;99.90
7117;DHT22;3600;48.568;7.870;2023-04-27T00:15:13;9.50;99.90
7117;DHT22;3600;48.568;7.870;2023-04-27T00:17:48;9.60;99.90
7117;DHT22;3600;48.568;7.870;2023-04-27T00:20:25;9.50;99.90
7117;DHT22;3600;48.568;7.870;2023-04-27T00:23:17;9.30;99.90
7117;DHT22;3600;48.568;7.870;2023-04-27T00:26:03;9.10;99.90
7117;DHT22;3600;48.568;7.870;2023-04-27T00:28:43;9.00;99.90
7117;DHT22;3600;48.568;7.870;2023-04-27T00:31:38;9.00;99.90
7117;DHT22;3600;48.568;7.870;2023-04-27T00:34:38;9.10;99.90
7117;DHT22;3600;48.568;7.870;2023-04-27T00:37:29;9.30;99.90
7117;DHT22;3600;48.568;7.870;2023-04-27T00:40:03;9.30;99.90
7117;DHT22;3600;48.568;7.870;2023-04-27T00:42:51;9.10;99.90
7117;DHT22;3600;48.568;7.870;2023-04-27T00:45:23;9.00;99.90
7117;DHT22;3600;48.568;7.870;2023-04-27T00:47:53;8.80;99.90
7117;DHT22;3600;48.568;7.870;2023-04-27T00:50:27;8.80;99.90
7117;DHT22;3600;48.568;7.870;2023-04-27T00:52:55;8.80;99.90
7117;DHT22;3600;48.568;7.870;2023-04-27T00:55:23;8.90;99.90
7117;DHT22;3600;48.568;7.870;2023-04-27T00:57:50;9.10;99.90
7117;DHT22;3600;48.568;7.870;2023-04-27T01:00:20;9.10;99.90
7117;DHT22;3600;48.568;7.870;2023-04-27T01:02:53;9.10;99.90
7117;DHT22;3600;48.568;7.870;2023-04-27T01:05:21;9.10;99.90
7117;DHT22;3600;48.568;7.870;2023-04-27T01:07:56;9.00;99.90
7117;DHT22;3600;48.568;7.870;2023-04-27T01:10:28;9.10;99.90
7117;DHT22;3600;48.568;7.870;2023-04-27T01:12:58;9.00;99.90
7117;DHT22;3600;48.568;7.870;2023-04-27T01:15:30;9.00;99.90
7117;DHT22;3600;48.568;7.870;2023-04-27T01:18:04;9.00;99.90
7117;DHT22;3600;48.568;7.870;2023-04-27T01:20:36;8.90;99.90
7117;DHT22;3600;48.568;7.870;2023-04-27T01:23:07;8.80;99.90
7117;DHT22;3600;48.568;7.870;2023-04-27T01:25:34;9.00;99.90
7117;DHT22;3600;48.568;7.870;2023-04-27T01:28:01;9.00;99.90
7117;DHT22;3600;48.568;7.870;2023-04-27T01:30:28;9.00;99.90
7117;DHT22;3600;48.568;7.870;2023-04-27T01:32:56;8.90;99.90
7117;DHT22;3600;48.568;7.870;2023-04-27T01:35:23;9.00;99.90
7117;DHT22;3600;48.568;7.870;2023-04-27T01:37:53;9.00;99.90
7117;DHT22;3600;48.568;7.870;2023-04-27T01:40:22;8.80;99.90
7117;DHT22;3600;48.568;7.870;2023-04-27T01:42:49;8.70;99.90
7117;DHT22;3600;48.568;7.870;2023-04-27T01:45:16;8.60;99.90
7117;DHT22;3600;48.568;7.870;2023-04-27T01:47:43;8.60;99.90
7117;DHT22;3600;48.568;7.870;2023-04-27T01:50:10;8.70;99.90
7117;DHT22;3600;48.568;7.870;2023-04-27T01:52:37;8.80;99.90
7117;DHT22;3600;48.568;7.870;2023-04-27T01:55:04;8.70;99.90
7117;DHT22;3600;48.568;7.870;2023-04-27T01:57:31;8.70;99.90
7117;DHT22;3600;48.568;7.870;2023-04-27T01:59:58;8.80;99.90
7117;DHT22;3600;48.568;7.870;2023-04-27T02:02:29;8.90;99.90
7117;DHT22;3600;48.568;7.870;2023-04-27T02:04:59;8.80;99.90
7117;DHT22;3600;48.568;7.870;2023-04-27T02:07:26;8.70;99.90
7117;DHT22;3600;48.568;7.870;2023-04-27T02:09:53;8.70;99.90
7117;DHT22;3600;48.568;7.870;2023-04-27T02:12:20;8.60;99.90
7117;DHT22;3600;48.568;7.870;2023-04-27T02:14:47;8.60;99.90
7117;DHT22;3600;48.568;7.870;2023-04-27T02:17:14;8.70;99.90
7117;DHT22;3600;48.568;7.870;2023-04-27T02:19:41;8.70;99.90
7117;DHT22;3600;48.568;7.870;2023-04-27T02:22:08;8.80;99.90
7117;DHT22;3600;48.568;7.870;2023-04-27T02:24:35;8.80;99.90
7117;DHT22;3600;48.568;7.870;2023-04-27T02:27:02;8.70;99.90
7117;DHT22;3600;48.568;7.870;2023-04-27T02:29:30;8.80;99.90
7117;DHT22;3600;48.568;7.870;2023-04-27T02:31:57;8.70;99.90
7117;DHT22;3600;48.568;7.870;2023-04-27T02:34:24;8.70;99.90
7117;DHT22;3600;48.568;7.870;2023-04-27T02:36:51;8.70;99.90
7117;DHT22;3600;48.568;7.870;2023-04-27T02:39:18;8.60;99.90
7117;DHT22;3600;48.568;7.870;2023-04-27T02:41:45;8.70;99.90
7117;DHT22;3600;48.568;7.870;2023-04-27T02:44:12;8.60;99.90
7117;DHT22;3600;48.568;7.870;2023-04-27T02:46:39;8.60;99.90
7117;DHT22;3600;48.568;7.870;2023-04-27T02:49:05;8.70;99.90
7117;DHT22;3600;48.568;7.870;2023-04-27T02:51:32;8.70;99.90
7117;DHT22;3600;48.568;7.870;2023-04-27T02:53:59;8.70;99.90
7117;DHT22;3600;48.568;7.870;2023-04-27T02:56:26;8.70;99.90
7117;DHT22;3600;48.568;7.870;2023-04-27T02:58:53;8.70;99.90
7117;DHT22;3600;48.568;7.870;2023-04-27T03:01:20;8.70;99.90
7117;DHT22;3600;48.568;7.870;2023-04-27T03:03:47;9.00;99.90
7117;DHT22;3600;48.568;7.870;2023-04-27T03:06:14;9.00;99.90
7117;DHT22;3600;48.568;7.870;2023-04-27T03:08:41;9.10;99.90
7117;DHT22;3600;48.568;7.870;2023-04-27T03:11:08;9.10;99.90
7117;DHT22;3600;48.568;7.870;2023-04-27T03:13:35;8.90;99.90
7117;DHT22;3600;48.568;7.870;2023-04-27T03:16:09;8.70;99.90
7117;DHT22;3600;48.568;7.870;2023-04-27T03:18:39;8.60;99.90
7117;DHT22;3600;48.568;7.870;2023-04-27T03:21:07;8.50;99.90
7117;DHT22;3600;48.568;7.870;2023-04-27T03:23:35;8.50;99.90
7117;DHT22;3600;48.568;7.870;2023-04-27T03:26:09;8.50;99.90
7117;DHT22;3600;48.568;7.870;2023-04-27T03:28:37;8.40;99.90
7117;DHT22;3600;48.568;7.870;2023-04-27T03:31:05;8.40;99.90
7117;DHT22;3600;48.568;7.870;2023-04-27T03:33:32;8.40;99.90
7117;DHT22;3600;48.568;7.870;2023-04-27T03:35:59;8.30;99.90
7117;DHT22;3600;48.568;7.870;2023-04-27T03:38:30;8.40;99.90
7117;DHT22;3600;48.568;7.870;2023-04-27T03:40:57;8.60;99.90
7117;DHT22;3600;48.568;7.870;2023-04-27T03:43:28;8.50;99.90
7117;DHT22;3600;48.568;7.870;2023-04-27T03:45:55;8.40;99.90
7117;DHT22;3600;48.568;7.870;2023-04-27T03:48:22;8.30;99.90
7117;DHT22;3600;48.568;7.870;2023-04-27T03:50:52;8.10;99.90
7117;DHT22;3600;48.568;7.870;2023-04-27T03:53:18;8.10;99.90
7117;DHT22;3600;48.568;7.870;2023-04-27T03:55:46;8.20;99.90
7117;DHT22;3600;48.568;7.870;2023-04-27T03:58:15;8.20;99.90
7117;DHT22;3600;48.568;7.870;2023-04-27T04:00:47;8.30;99.90
7117;DHT22;3600;48.568;7.870;2023-04-27T04:03:16;8.30;99.90
7117;DHT22;3600;48.568;7.870;2023-04-27T04:05:43;8.40;99.90
7117;DHT22;3600;48.568;7.870;2023-04-27T04:08:13;8.30;99.90
7117;DHT22;3600;48.568;7.870;2023-04-27T04:10:40;8.30;99.90
7117;DHT22;3600;48.568;7.870;2023-04-27T04:13:09;8.40;99.90
7117;DHT22;3600;48.568;7.870;2023-04-27T04:15:36;8.40;99.90
7117;DHT22;3600;48.568;7.870;2023-04-27T04:18:03;8.30;99.90
7117;DHT22;3600;48.568;7.870;2023-04-27T04:20:30;8.40;99.90
7117;DHT22;3600;48.568;7.870;2023-04-27T04:23:02;8.30;99.90
7117;DHT22;3600;48.568;7.870;2023-04-27T04:25:29;8.40;99.90
7117;DHT22;3600;48.568;7.870;2023-04-27T04:27:57;8.30;99.90
7117;DHT22;3600;48.568;7.870;2023-04-27T04:30:27;8.10;99.90
7117;DHT22;3600;48.568;7.870;2023-04-27T04:33:00;8.00;99.90
7117;DHT22;3600;48.568;7.870;2023-04-27T04:35:30;8.10;99.90
7117;DHT22;3600;48.568;7.870;2023-04-27T04:38:01;8.30;99.90
7117;DHT22;3600;48.568;7.870;2023-04-27T04:40:31;8.30;99.90
7117;DHT22;3600;48.568;7.870;2023-04-27T04:43:04;8.10;99.90
7117;DHT22;3600;48.568;7.870;2023-04-27T04:45:33;8.30;99.90
7117;DHT22;3600;48.568;7.870;2023-04-27T04:48:03;8.20;99.90
7117;DHT22;3600;48.568;7.870;2023-04-27T04:50:32;8.30;99.90
7117;DHT22;3600;48.568;7.870;2023-04-27T04:53:04;8.10;99.90
7117;DHT22;3600;48.568;7.870;2023-04-27T04:55:35;8.10;99.90
7117;DHT22;3600;48.568;7.870;2023-04-27T04:58:07;8.20;99.90
7117;DHT22;3600;48.568;7.870;2023-04-27T05:00:41;8.40;99.90
7117;DHT22;3600;48.568;7.870;2023-04-27T05:03:12;8.50;99.90
7117;DHT22;3600;48.568;7.870;2023-04-27T05:05:43;8.50;99.90
7117;DHT22;3600;48.568;7.870;2023-04-27T05:08:11;8.30;99.90
7117;DHT22;3600;48.568;7.870;2023-04-27T05:10:38;8.30;99.90
7117;DHT22;3600;48.568;7.870;2023-04-27T05:13:05;8.40;99.90
7117;DHT22;3600;48.568;7.870;2023-04-27T05:15:36;8.50;99.90
7117;DHT22;3600;48.568;7.870;2023-04-27T05:18:03;8.70;99.90
7117;DHT22;3600;48.568;7.870;2023-04-27T05:20:38;8.80;99.90
7117;DHT22;3600;48.568;7.870;2023-04-27T05:23:10;8.80;99.90
7117;DHT22;3600;48.568;7.870;2023-04-27T05:25:40;8.60;99.90
7117;DHT22;3600;48.568;7.870;2023-04-27T05:28:11;8.60;99.90
7117;DHT22;3600;48.568;7.870;2023-04-27T05:31:07;8.60;99.90
7117;DHT22;3600;48.568;7.870;2023-04-27T05:33:37;8.70;99.90
7117;DHT22;3600;48.568;7.870;2023-04-27T05:36:08;8.80;99.90
7117;DHT22;3600;48.568;7.870;2023-04-27T05:38:35;8.50;99.90
7117;DHT22;3600;48.568;7.870;2023-04-27T05:41:05;8.50;99.90
7117;DHT22;3600;48.568;7.870;2023-04-27T05:43:37;8.80;99.90
7117;DHT22;3600;48.568;7.870;2023-04-27T05:46:04;8.80;99.90
7117;DHT22;3600;48.568;7.870;2023-04-27T05:48:33;8.90;99.90
7117;DHT22;3600;48.568;7.870;2023-04-27T05:51:03;9.00;99.90
7117;DHT22;3600;48.568;7.870;2023-04-27T05:53:32;9.10;99.90
7117;DHT22;3600;48.568;7.870;2023-04-27T05:56:05;8.60;99.90
7117;DHT22;3600;48.568;7.870;2023-04-27T05:58:37;8.50;99.90
7117;DHT22;3600;48.568;7.870;2023-04-27T06:01:06;8.60;99.90
7117;DHT22;3600;48.568;7.870;2023-04-27T06:03:36;8.90;99.90
7117;DHT22;3600;48.568;7.870;2023-04-27T06:06:06;8.80;99.90
7117;DHT22;3600;48.568;7.870;2023-04-27T06:08:34;8.80;99.90
7117;DHT22;3600;48.568;7.870;2023-04-27T06:11:05;9.10;99.90
7117;DHT22;3600;48.568;7.870;2023-04-27T06:13:35;9.30;99.90
7117;DHT22;3600;48.568;7.870;2023-04-27T06:16:01;9.40;99.90
7117;DHT22;3600;48.568;7.870;2023-04-27T06:18:28;9.20;99.90
7117;DHT22;3600;48.568;7.870;2023-04-27T06:21:01;9.40;99.90
7117;DHT22;3600;48.568;7.870;2023-04-27T06:23:28;9.50;99.90
7117;DHT22;3600;48.568;7.870;2023-04-27T06:25:55;9.30;99.90
7117;DHT22;3600;48.568;7.870;2023-04-27T06:28:36;8.90;99.90
7117;DHT22;3600;48.568;7.870;2023-04-27T06:31:05;9.00;99.90
7117;DHT22;3600;48.568;7.870;2023-04-27T06:33:32;9.10;99.90
7117;DHT22;3600;48.568;7.870;2023-04-27T06:36:04;9.30;99.90
7117;DHT22;3600;48.568;7.870;2023-04-27T06:38:32;9.40;99.90
7117;DHT22;3600;48.568;7.870;2023-04-27T06:40:59;9.40;99.90
7117;DHT22;3600;48.568;7.870;2023-04-27T06:43:33;9.50;99.90
7117;DHT22;3600;48.568;7.870;2023-04-27T06:49:03;9.20;99.90
7117;DHT22;3600;48.568;7.870;2023-04-27T06:51:41;9.30;99.90
7117;DHT22;3600;48.568;7.870;2023-04-27T06:54:17;9.50;99.90
7117;DHT22;3600;48.568;7.870;2023-04-27T06:56:54;9.70;99.90
7117;DHT22;3600;48.568;7.870;2023-04-27T06:59:23;9.80;99.90
7117;DHT22;3600;48.568;7.870;2023-04-27T07:01:53;9.60;99.90
7117;DHT22;3600;48.568;7.870;2023-04-27T07:07:11;9.90;99.90
7117;DHT22;3600;48.568;7.870;2023-04-27T07:10:01;9.90;99.90
7117;DHT22;3600;48.568;7.870;2023-04-27T07:12:48;10.10;99.90
7117;DHT22;3600;48.568;7.870;2023-04-27T07:15:24;9.90;99.90
7117;DHT22;3600;48.568;7.870;2023-04-27T07:18:00;10.00;99.90
7117;DHT22;3600;48.568;7.870;2023-04-27T07:23:42;10.70;99.90
7117;DHT22;3600;48.568;7.870;2023-04-27T07:26:36;10.80;99.90
7117;DHT22;3600;48.568;7.870;2023-04-27T07:29:17;10.60;99.90
7117;DHT22;3600;48.568;7.870;2023-04-27T07:31:59;10.40;99.90
7117;DHT22;3600;48.568;7.870;2023-04-27T07:37:58;10.10;99.90
7117;DHT22;3600;48.568;7.870;2023-04-27T07:40:43;10.40;99.90
7117;DHT22;3600;48.568;7.870;2023-04-27T07:43:11;10.40;99.90
7117;DHT22;3600;48.568;7.870;2023-04-27T07:49:55;10.70;99.90
7117;DHT22;3600;48.568;7.870;2023-04-27T07:52:35;11.00;99.90
7117;DHT22;3600;48.568;7.870;2023-04-27T07:55:02;11.00;99.90
7117;DHT22;3600;48.568;7.870;2023-04-27T07:57:46;11.20;99.90
7117;DHT22;3600;48.568;7.870;2023-04-27T08:00:40;11.30;99.90
7117;DHT22;3600;48.568;7.870;2023-04-27T08:03:21;11.40;99.90
7117;DHT22;3600;48.568;7.870;2023-04-27T08:05:57;11.50;99.90
7117;DHT22;3600;48.568;7.870;2023-04-27T08:08:38;11.40;99.90
7117;DHT22;3600;48.568;7.870;2023-04-27T08:14:28;11.20;99.90
7117;DHT22;3600;48.568;7.870;2023-04-27T08:17:27;11.50;99.90
7117;DHT22;3600;48.568;7.870;2023-04-27T08:20:36;11.20;99.90
7117;DHT22;3600;48.568;7.870;2023-04-27T08:23:03;11.40;99.90
7117;DHT22;3600;48.568;7.870;2023-04-27T08:29:06;11.70;99.90
7117;DHT22;3600;48.568;7.870;2023-04-27T08:32:00;11.90;99.90
7117;DHT22;3600;48.568;7.870;2023-04-27T08:34:28;12.20;99.90
7117;DHT22;3600;48.568;7.870;2023-04-27T08:37:07;12.20;99.90
7117;DHT22;3600;48.568;7.870;2023-04-27T08:39:37;11.90;99.90
7117;DHT22;3600;48.568;7.870;2023-04-27T08:42:18;11.90;99.90
7117;DHT22;3600;48.568;7.870;2023-04-27T08:44:58;12.10;99.90
7117;DHT22;3600;48.568;7.870;2023-04-27T08:47:49;11.90;99.90
7117;DHT22;3600;48.568;7.870;2023-04-27T08:50:17;12.00;99.90
7117;DHT22;3600;48.568;7.870;2023-04-27T08:53:06;12.20;99.90
7117;DHT22;3600;48.568;7.870;2023-04-27T08:55:54;12.50;99.90
7117;DHT22;3600;48.568;7.870;2023-04-27T08:58:36;12.70;99.90
7117;DHT22;3600;48.568;7.870;2023-04-27T09:01:09;12.90;99.90
7117;DHT22;3600;48.568;7.870;2023-04-27T09:03:39;13.10;99.90
7117;DHT22;3600;48.568;7.870;2023-04-27T09:06:07;13.10;99.90
7117;DHT22;3600;48.568;7.870;2023-04-27T09:08:43;13.30;99.90
7117;DHT22;3600;48.568;7.870;2023-04-27T09:11:11;13.30;99.90
7117;DHT22;3600;48.568;7.870;2023-04-27T09:13:40;12.90;99.90
7117;DHT22;3600;48.568;7.870;2023-04-27T09:16:07;13.00;99.90
7117;DHT22;3600;48.568;7.870;2023-04-27T09:18:35;13.10;99.90
7117;DHT22;3600;48.568;7.870;2023-04-27T09:21:03;13.10;99.90
7117;DHT22;3600;48.568;7.870;2023-04-27T09:23:35;13.00;99.90
7117;DHT22;3600;48.568;7.870;2023-04-27T09:26:06;13.00;99.90
7117;DHT22;3600;48.568;7.870;2023-04-27T09:28:39;13.50;99.90
7117;DHT22;3600;48.568;7.870;2023-04-27T09:31:13;13.60;99.90
7117;DHT22;3600;48.568;7.870;2023-04-27T09:33:39;13.90;99.90
7117;DHT22;3600;48.568;7.870;2023-04-27T09:36:06;13.90;99.90
7117;DHT22;3600;48.568;7.870;2023-04-27T09:38:33;14.00;99.90
7117;DHT22;3600;48.568;7.870;2023-04-27T09:41:01;14.30;99.90
7117;DHT22;3600;48.568;7.870;2023-04-27T09:43:30;14.10;99.90
7117;DHT22;3600;48.568;7.870;2023-04-27T09:45:58;14.10;99.90
7117;DHT22;3600;48.568;7.870;2023-04-27T09:48:25;14.30;99.90
7117;DHT22;3600;48.568;7.870;2023-04-27T09:50:52;14.30;99.90
7117;DHT22;3600;48.568;7.870;2023-04-27T09:53:25;14.40;99.90
7117;DHT22;3600;48.568;7.870;2023-04-27T10:06:52;15.30;99.90
7117;DHT22;3600;48.568;7.870;2023-04-27T10:09:22;15.40;99.90
7117;DHT22;3600;48.568;7.870;2023-04-27T10:11:53;15.30;99.90
7117;DHT22;3600;48.568;7.870;2023-04-27T10:14:22;15.20;99.90
7117;DHT22;3600;48.568;7.870;2023-04-27T10:16:53;15.30;99.70
7117;DHT22;3600;48.568;7.870;2023-04-27T10:19:21;15.40;99.90
7117;DHT22;3600;48.568;7.870;2023-04-27T10:22:00;15.50;99.90
7117;DHT22;3600;48.568;7.870;2023-04-27T10:24:39;15.50;99.90
7117;DHT22;3600;48.568;7.870;2023-04-27T10:27:09;15.70;99.90
7117;DHT22;3600;48.568;7.870;2023-04-27T10:29:45;15.60;99.90
7117;DHT22;3600;48.568;7.870;2023-04-27T10:32:17;15.80;99.90
7117;DHT22;3600;48.568;7.870;2023-04-27T10:34:44;15.80;98.20
7117;DHT22;3600;48.568;7.870;2023-04-27T10:37:14;15.40;99.50
7117;DHT22;3600;48.568;7.870;2023-04-27T10:39:43;15.60;99.90
7117;DHT22;3600;48.568;7.870;2023-04-27T10:42:27;15.90;99.80
7117;DHT22;3600;48.568;7.870;2023-04-27T10:44:57;15.90;99.70
7117;DHT22;3600;48.568;7.870;2023-04-27T10:50:05;16.10;99.90
7117;DHT22;3600;48.568;7.870;2023-04-27T10:52:33;16.20;99.90
7117;DHT22;3600;48.568;7.870;2023-04-27T10:55:20;16.50;99.90
7117;DHT22;3600;48.568;7.870;2023-04-27T10:57:52;16.60;99.70
7117;DHT22;3600;48.568;7.870;2023-04-27T11:02:49;16.60;97.50
7117;DHT22;3600;48.568;7.870;2023-04-27T11:05:20;16.50;98.70
7117;DHT22;3600;48.568;7.870;2023-04-27T11:07:48;16.50;99.10
7117;DHT22;3600;48.568;7.870;2023-04-27T11:10:18;16.90;99.60
7117;DHT22;3600;48.568;7.870;2023-04-27T11:12:45;17.20;98.90
7117;DHT22;3600;48.568;7.870;2023-04-27T11:15:12;17.10;98.70
7117;DHT22;3600;48.568;7.870;2023-04-27T11:17:39;17.20;99.20
7117;DHT22;3600;48.568;7.870;2023-04-27T11:20:08;17.20;98.80
7117;DHT22;3600;48.568;7.870;2023-04-27T11:22:45;17.10;97.40
7117;DHT22;3600;48.568;7.870;2023-04-27T11:25:12;17.10;97.80
7117;DHT22;3600;48.568;7.870;2023-04-27T11:27:40;17.20;96.40
7117;DHT22;3600;48.568;7.870;2023-04-27T11:30:21;17.10;97.10
7117;DHT22;3600;48.568;7.870;2023-04-27T11:32:49;16.60;97.70
7117;DHT22;3600;48.568;7.870;2023-04-27T11:35:17;16.70;96.50
7117;DHT22;3600;48.568;7.870;2023-04-27T11:37:44;16.60;97.00
7117;DHT22;3600;48.568;7.870;2023-04-27T11:40:14;17.10;97.90
7117;DHT22;3600;48.568;7.870;2023-04-27T11:42:41;17.20;99.00
7117;DHT22;3600;48.568;7.870;2023-04-27T11:45:13;17.80;98.40
7117;DHT22;3600;48.568;7.870;2023-04-27T11:47:45;18.00;97.80
7117;DHT22;3600;48.568;7.870;2023-04-27T11:50:15;18.20;96.20
7117;DHT22;3600;48.568;7.870;2023-04-27T11:52:41;17.90;98.30
7117;DHT22;3600;48.568;7.870;2023-04-27T11:55:08;18.40;98.30
7117;DHT22;3600;48.568;7.870;2023-04-27T11:57:41;18.70;97.00
7117;DHT22;3600;48.568;7.870;2023-04-27T12:00:09;18.30;96.50
7117;DHT22;3600;48.568;7.870;2023-04-27T12:02:41;18.00;94.90
7117;DHT22;3600;48.568;7.870;2023-04-27T12:05:09;17.30;97.10
7117;DHT22;3600;48.568;7.870;2023-04-27T12:07:38;17.90;96.90
7117;DHT22;3600;48.568;7.870;2023-04-27T12:10:06;17.60;95.30
7117;DHT22;3600;48.568;7.870;2023-04-27T12:12:33;17.50;97.20
7117;DHT22;3600;48.568;7.870;2023-04-27T12:15:00;16.80;96.30
7117;DHT22;3600;48.568;7.870;2023-04-27T12:17:28;17.50;97.70
7117;DHT22;3600;48.568;7.870;2023-04-27T12:19:55;17.80;96.40
7117;DHT22;3600;48.568;7.870;2023-04-27T12:22:22;18.00;98.40
7117;DHT22;3600;48.568;7.870;2023-04-27T12:24:50;18.50;97.00
7117;DHT22;3600;48.568;7.870;2023-04-27T12:27:16;19.00;96.00
7117;DHT22;3600;48.568;7.870;2023-04-27T12:29:43;18.80;96.50
7117;DHT22;3600;48.568;7.870;2023-04-27T12:32:10;19.10;95.10
7117;DHT22;3600;48.568;7.870;2023-04-27T12:34:37;18.30;94.90
7117;DHT22;3600;48.568;7.870;2023-04-27T12:37:05;18.60;94.60
7117;DHT22;3600;48.568;7.870;2023-04-27T12:39:32;18.80;97.00
7117;DHT22;3600;48.568;7.870;2023-04-27T12:41:59;19.20;97.00
7117;DHT22;3600;48.568;7.870;2023-04-27T12:44:25;19.60;96.50
7117;DHT22;3600;48.568;7.870;2023-04-27T12:46:52;19.90;96.10
7117;DHT22;3600;48.568;7.870;2023-04-27T12:49:19;19.40;95.40
7117;DHT22;3600;48.568;7.870;2023-04-27T12:51:46;19.80;94.50
7117;DHT22;3600;48.568;7.870;2023-04-27T12:54:17;19.70;94.30
7117;DHT22;3600;48.568;7.870;2023-04-27T12:56:43;18.90;95.80
7117;DHT22;3600;48.568;7.870;2023-04-27T12:59:10;19.00;94.30
7117;DHT22;3600;48.568;7.870;2023-04-27T13:01:37;19.70;94.50
7117;DHT22;3600;48.568;7.870;2023-04-27T13:04:05;20.00;94.20
7117;DHT22;3600;48.568;7.870;2023-04-27T13:06:32;20.20;92.60
7117;DHT22;3600;48.568;7.870;2023-04-27T13:08:59;19.60;93.00
7117;DHT22;3600;48.568;7.870;2023-04-27T13:11:26;19.60;94.10
7117;DHT22;3600;48.568;7.870;2023-04-27T13:13:53;19.70;91.60
7117;DHT22;3600;48.568;7.870;2023-04-27T13:16:20;19.20;93.20
7117;DHT22;3600;48.568;7.870;2023-04-27T13:18:51;18.90;93.50
7117;DHT22;3600;48.568;7.870;2023-04-27T13:21:18;19.80;94.20
7117;DHT22;3600;48.568;7.870;2023-04-27T13:23:46;20.30;94.40
7117;DHT22;3600;48.568;7.870;2023-04-27T13:26:14;20.90;93.30
7117;DHT22;3600;48.568;7.870;2023-04-27T13:28:42;20.80;93.00
7117;DHT22;3600;48.568;7.870;2023-04-27T13:31:09;20.70;92.70
7117;DHT22;3600;48.568;7.870;2023-04-27T13:33:43;20.80;92.90
7117;DHT22;3600;48.568;7.870;2023-04-27T13:36:11;20.20;93.00
7117;DHT22;3600;48.568;7.870;2023-04-27T13:38:38;20.80;94.00
7117;DHT22;3600;48.568;7.870;2023-04-27T13:41:05;21.10;93.70
7117;DHT22;3600;48.568;7.870;2023-04-27T13:43:32;21.40;92.90
7117;DHT22;3600;48.568;7.870;2023-04-27T13:46:02;20.00;90.20
7117;DHT22;3600;48.568;7.870;2023-04-27T13:48:29;19.90;94.00
7117;DHT22;3600;48.568;7.870;2023-04-27T13:50:56;19.80;93.50
7117;DHT22;3600;48.568;7.870;2023-04-27T13:53:24;18.90;91.90
7117;DHT22;3600;48.568;7.870;2023-04-27T13:55:52;18.20;92.20
7117;DHT22;3600;48.568;7.870;2023-04-27T13:58:19;19.10;94.50
7117;DHT22;3600;48.568;7.870;2023-04-27T14:00:48;19.90;93.50
7117;DHT22;3600;48.568;7.870;2023-04-27T14:03:18;20.20;93.50
7117;DHT22;3600;48.568;7.870;2023-04-27T14:05:45;20.00;93.20
7117;DHT22;3600;48.568;7.870;2023-04-27T14:08:14;19.50;94.00
7117;DHT22;3600;48.568;7.870;2023-04-27T14:10:41;19.60;94.20
7117;DHT22;3600;48.568;7.870;2023-04-27T14:13:08;19.00;92.60
7117;DHT22;3600;48.568;7.870;2023-04-27T14:15:35;18.90;94.70
7117;DHT22;3600;48.568;7.870;2023-04-27T14:18:04;19.20;95.10
7117;DHT22;3600;48.568;7.870;2023-04-27T14:20:32;19.40;94.70
7117;DHT22;3600;48.568;7.870;2023-04-27T14:23:00;19.70;94.40
7117;DHT22;3600;48.568;7.870;2023-04-27T14:25:27;20.20;94.40
7117;DHT22;3600;48.568;7.870;2023-04-27T14:28:00;19.90;92.80
7117;DHT22;3600;48.568;7.870;2023-04-27T14:30:27;19.80;94.10
7117;DHT22;3600;48.568;7.870;2023-04-27T14:32:54;19.80;92.40
7117;DHT22;3600;48.568;7.870;2023-04-27T14:35:21;19.60;93.50
7117;DHT22;3600;48.568;7.870;2023-04-27T14:37:50;20.10;94.00
7117;DHT22;3600;48.568;7.870;2023-04-27T14:40:18;20.10;94.00
7117;DHT22;3600;48.568;7.870;2023-04-27T14:42:45;20.10;93.80
7117;DHT22;3600;48.568;7.870;2023-04-27T14:45:12;20.00;93.60
7117;DHT22;3600;48.568;7.870;2023-04-27T14:47:39;19.40;92.80
7117;DHT22;3600;48.568;7.870;2023-04-27T14:50:06;19.00;93.00
7117;DHT22;3600;48.568;7.870;2023-04-27T14:52:33;19.50;94.80
7117;DHT22;3600;48.568;7.870;2023-04-27T14:55:00;19.70;94.10
7117;DHT22;3600;48.568;7.870;2023-04-27T14:57:27;19.40;92.40
7117;DHT22;3600;48.568;7.870;2023-04-27T14:59:54;19.90;94.40
7117;DHT22;3600;48.568;7.870;2023-04-27T15:02:22;19.90;94.00
7117;DHT22;3600;48.568;7.870;2023-04-27T15:04:49;19.70;93.60
7117;DHT22;3600;48.568;7.870;2023-04-27T15:07:16;19.60;94.20
7117;DHT22;3600;48.568;7.870;2023-04-27T15:09:45;19.80;94.10
7117;DHT22;3600;48.568;7.870;2023-04-27T15:12:12;19.90;94.80
7117;DHT22;3600;48.568;7.870;2023-04-27T15:14:39;20.10;94.10
7117;DHT22;3600;48.568;7.870;2023-04-27T15:17:06;19.90;93.60
7117;DHT22;3600;48.568;7.870;2023-04-27T15:19:33;19.80;93.40
7117;DHT22;3600;48.568;7.870;2023-04-27T15:22:01;19.90;92.70
7117;DHT22;3600;48.568;7.870;2023-04-27T15:24:27;20.00;92.60
7117;DHT22;3600;48.568;7.870;2023-04-27T15:26:54;19.80;92.80
7117;DHT22;3600;48.568;7.870;2023-04-27T15:29:22;19.80;93.50
7117;DHT22;3600;48.568;7.870;2023-04-27T15:31:49;20.20;92.80
7117;DHT22;3600;48.568;7.870;2023-04-27T15:34:16;20.20;93.00
7117;DHT22;3600;48.568;7.870;2023-04-27T15:36:43;20.40;92.80
7117;DHT22;3600;48.568;7.870;2023-04-27T15:39:10;19.70;90.80
7117;DHT22;3600;48.568;7.870;2023-04-27T15:41:37;19.30;93.30
7117;DHT22;3600;48.568;7.870;2023-04-27T15:44:04;19.10;92.80
7117;DHT22;3600;48.568;7.870;2023-04-27T15:46:32;18.90;93.40
7117;DHT22;3600;48.568;7.870;2023-04-27T15:48:58;18.90;92.10
7117;DHT22;3600;48.568;7.870;2023-04-27T15:51:26;18.90;91.50
7117;DHT22;3600;48.568;7.870;2023-04-27T15:53:53;19.10;92.70
7117;DHT22;3600;48.568;7.870;2023-04-27T15:56:20;19.50;91.60
7117;DHT22;3600;48.568;7.870;2023-04-27T15:58:47;20.30;92.20
7117;DHT22;3600;48.568;7.870;2023-04-27T16:01:14;20.20;91.50
7117;DHT22;3600;48.568;7.870;2023-04-27T16:03:41;20.60;92.20
7117;DHT22;3600;48.568;7.870;2023-04-27T16:06:08;21.30;91.40
7117;DHT22;3600;48.568;7.870;2023-04-27T16:08:34;21.50;91.30
7117;DHT22;3600;48.568;7.870;2023-04-27T16:11:01;21.60;90.40
7117;DHT22;3600;48.568;7.870;2023-04-27T16:13:28;20.80;91.30
7117;DHT22;3600;48.568;7.870;2023-04-27T16:15:55;21.00;91.50
7117;DHT22;3600;48.568;7.870;2023-04-27T16:18:24;21.00;92.10
7117;DHT22;3600;48.568;7.870;2023-04-27T16:20:51;20.60;92.10
7117;DHT22;3600;48.568;7.870;2023-04-27T16:23:18;20.20;92.60
7117;DHT22;3600;48.568;7.870;2023-04-27T16:25:44;20.50;92.10
7117;DHT22;3600;48.568;7.870;2023-04-27T16:28:11;20.70;91.40
7117;DHT22;3600;48.568;7.870;2023-04-27T16:30:38;20.60;91.50
7117;DHT22;3600;48.568;7.870;2023-04-27T16:33:05;19.80;90.30
7117;DHT22;3600;48.568;7.870;2023-04-27T16:35:31;19.20;91.30
7117;DHT22;3600;48.568;7.870;2023-04-27T16:37:59;19.30;92.50
7117;DHT22;3600;48.568;7.870;2023-04-27T16:40:26;20.00;93.10
7117;DHT22;3600;48.568;7.870;2023-04-27T16:42:53;20.40;93.00
7117;DHT22;3600;48.568;7.870;2023-04-27T16:45:19;20.10;92.40
7117;DHT22;3600;48.568;7.870;2023-04-27T16:47:46;20.10;92.10
7117;DHT22;3600;48.568;7.870;2023-04-27T16:50:13;19.40;90.70
7117;DHT22;3600;48.568;7.870;2023-04-27T16:52:40;19.70;92.70
7117;DHT22;3600;48.568;7.870;2023-04-27T16:55:07;19.90;92.20
7117;DHT22;3600;48.568;7.870;2023-04-27T16:57:34;19.40;91.60
7117;DHT22;3600;48.568;7.870;2023-04-27T17:00:01;19.20;92.70
7117;DHT22;3600;48.568;7.870;2023-04-27T17:02:28;18.80;93.60
7117;DHT22;3600;48.568;7.870;2023-04-27T17:04:54;18.60;93.70
7117;DHT22;3600;48.568;7.870;2023-04-27T17:07:22;18.40;93.90
7117;DHT22;3600;48.568;7.870;2023-04-27T17:09:48;18.50;93.80
7117;DHT22;3600;48.568;7.870;2023-04-27T17:12:15;18.60;92.80